DLH9LX ENGM-EDDF
Flight info
| Callsign | DLH9LX |
|---|---|
| Flight time | N/A |
| Altitude | 35000 |
| Route | VIPPA DCT RAXLU DCT RIMET T157 KERAX KERAX5A |
| Aircraft | A320/M-SDE3FGHIRWY/LB1 |
Departure
| Time | 2026-05-05 16:11 |
|---|---|
| Airport | Oslo-Gardermoen International Airport (ENGM) |
Arrival
| Time | N/A |
|---|---|
| Airport | Frankfurt Main Airport (EDDF) |
| Time | Latitude | Longitude | Altitude | Speed | Heading |
|---|---|---|---|---|---|
| 2026-05-05 15:46 | 60.19721 | 11.10250 | 682 ft | 0 kts | 286° |
| 2026-05-05 15:54 | 60.19718 | 11.10275 | 681 ft | 2 kts | 285° |
| 2026-05-05 15:55 | 60.19713 | 11.10307 | 679 ft | 2 kts | 288° |
| 2026-05-05 15:55 | 60.19708 | 11.10339 | 676 ft | 2 kts | 288° |
| 2026-05-05 15:55 | 60.19703 | 11.10370 | 678 ft | 2 kts | 288° |
| 2026-05-05 15:55 | 60.19698 | 11.10402 | 680 ft | 2 kts | 290° |
| 2026-05-05 15:56 | 60.19693 | 11.10425 | 677 ft | 2 kts | 288° |
| 2026-05-05 15:56 | 60.19690 | 11.10449 | 678 ft | 1 kts | 300° |
| 2026-05-05 15:56 | 60.19686 | 11.10462 | 678 ft | 1 kts | 360° |
| 2026-05-05 15:56 | 60.19685 | 11.10464 | 677 ft | 0 kts | 11° |
| 2026-05-05 16:01 | 60.19710 | 11.10473 | 681 ft | 8 kts | 11° |
| 2026-05-05 16:01 | 60.19760 | 11.10502 | 681 ft | 7 kts | 17° |
| 2026-05-05 16:02 | 60.19836 | 11.10548 | 682 ft | 13 kts | 17° |
| 2026-05-05 16:02 | 60.19907 | 11.10590 | 683 ft | 9 kts | 15° |
| 2026-05-05 16:02 | 60.19954 | 11.10595 | 682 ft | 6 kts | 334° |
| 2026-05-05 16:02 | 60.19984 | 11.10461 | 680 ft | 14 kts | 284° |
| 2026-05-05 16:03 | 60.20009 | 11.10272 | 684 ft | 15 kts | 287° |
| 2026-05-05 16:03 | 60.20039 | 11.10070 | 684 ft | 16 kts | 285° |
| 2026-05-05 16:03 | 60.20069 | 11.09851 | 683 ft | 17 kts | 287° |
| 2026-05-05 16:03 | 60.20107 | 11.09586 | 683 ft | 22 kts | 286° |
| 2026-05-05 16:04 | 60.20149 | 11.09295 | 682 ft | 21 kts | 287° |
| 2026-05-05 16:04 | 60.20187 | 11.09039 | 679 ft | 14 kts | 288° |
| 2026-05-05 16:04 | 60.20194 | 11.08929 | 680 ft | 6 kts | 243° |
| 2026-05-05 16:04 | 60.20140 | 11.08881 | 679 ft | 11 kts | 195° |
| 2026-05-05 16:05 | 60.20057 | 11.08835 | 676 ft | 14 kts | 195° |
| 2026-05-05 16:05 | 60.19961 | 11.08781 | 678 ft | 15 kts | 196° |
| 2026-05-05 16:05 | 60.19858 | 11.08722 | 677 ft | 16 kts | 196° |
| 2026-05-05 16:05 | 60.19748 | 11.08657 | 678 ft | 17 kts | 196° |
| 2026-05-05 16:06 | 60.19631 | 11.08588 | 678 ft | 18 kts | 197° |
| 2026-05-05 16:06 | 60.19511 | 11.08524 | 680 ft | 17 kts | 195° |
| 2026-05-05 16:06 | 60.19392 | 11.08454 | 680 ft | 18 kts | 196° |
| 2026-05-05 16:06 | 60.19266 | 11.08383 | 680 ft | 19 kts | 197° |
| 2026-05-05 16:07 | 60.19134 | 11.08306 | 679 ft | 20 kts | 195° |
| 2026-05-05 16:07 | 60.18996 | 11.08225 | 677 ft | 21 kts | 194° |
| 2026-05-05 16:07 | 60.18849 | 11.08140 | 670 ft | 23 kts | 198° |
| 2026-05-05 16:07 | 60.18697 | 11.08048 | 668 ft | 23 kts | 197° |
| 2026-05-05 16:08 | 60.18552 | 11.07966 | 666 ft | 21 kts | 195° |
| 2026-05-05 16:08 | 60.18422 | 11.07900 | 667 ft | 15 kts | 195° |
| 2026-05-05 16:08 | 60.18356 | 11.07856 | 665 ft | 6 kts | 211° |
| 2026-05-05 16:08 | 60.18348 | 11.07765 | 665 ft | 8 kts | 279° |
| 2026-05-05 16:09 | 60.18380 | 11.07663 | 663 ft | 10 kts | 321° |
| 2026-05-05 16:09 | 60.18433 | 11.07582 | 664 ft | 8 kts | 324° |
| 2026-05-05 16:09 | 60.18444 | 11.07566 | 664 ft | 0 kts | 324° |
| 2026-05-05 16:10 | 60.18486 | 11.07505 | 664 ft | 13 kts | 324° |
| 2026-05-05 16:10 | 60.18547 | 11.07425 | 663 ft | 7 kts | 333° |
| 2026-05-05 16:10 | 60.18578 | 11.07419 | 663 ft | 0 kts | 12° |
| 2026-05-05 16:10 | 60.18591 | 11.07426 | 663 ft | 12 kts | 16° |
| 2026-05-05 16:11 | 60.18932 | 11.07622 | 668 ft | 87 kts | 15° |
| 2026-05-05 16:11 | 60.21950 | 11.09404 | 1568 ft | 169 kts | 12° |
| 2026-05-05 16:12 | 60.23098 | 11.10053 | 2231 ft | 179 kts | 9° |
| 2026-05-05 16:12 | 60.25669 | 11.11336 | 3132 ft | 199 kts | 359° |
| 2026-05-05 16:13 | 60.30084 | 11.09375 | 4472 ft | 242 kts | 314° |
| 2026-05-05 16:13 | 60.30889 | 11.06417 | 5151 ft | 248 kts | 278° |
| 2026-05-05 16:13 | 60.30739 | 11.02941 | 5949 ft | 253 kts | 259° |
| 2026-05-05 16:14 | 60.30671 | 10.95864 | 7648 ft | 256 kts | 278° |
| 2026-05-05 16:14 | 60.31400 | 10.88756 | 9345 ft | 261 kts | 283° |
| 2026-05-05 16:15 | 60.31526 | 10.81458 | 10837 ft | 269 kts | 252° |
| 2026-05-05 16:15 | 60.29086 | 10.75562 | 11770 ft | 305 kts | 216° |
| 2026-05-05 16:16 | 60.25234 | 10.70759 | 12423 ft | 337 kts | 215° |
| 2026-05-05 16:16 | 60.21181 | 10.65781 | 13788 ft | 344 kts | 216° |
| 2026-05-05 16:17 | 60.17029 | 10.60872 | 15111 ft | 351 kts | 210° |
| 2026-05-05 16:17 | 60.14689 | 10.59270 | 15771 ft | 360 kts | 199° |
| 2026-05-05 16:18 | 60.09702 | 10.57490 | 17018 ft | 366 kts | 198° |
| 2026-05-05 16:18 | 60.07184 | 10.56622 | 17635 ft | 368 kts | 198° |
| 2026-05-05 16:18 | 60.02110 | 10.54859 | 18727 ft | 372 kts | 199° |
| 2026-05-05 16:19 | 59.99552 | 10.53963 | 19267 ft | 374 kts | 200° |
| 2026-05-05 16:19 | 59.96985 | 10.53067 | 19807 ft | 376 kts | 200° |
| 2026-05-05 16:19 | 59.91839 | 10.51281 | 20769 ft | 380 kts | 201° |
| 2026-05-05 16:20 | 59.86640 | 10.49490 | 20883 ft | 379 kts | 201° |
| 2026-05-05 16:20 | 59.81448 | 10.47699 | 20882 ft | 379 kts | 201° |
| 2026-05-05 16:21 | 59.76258 | 10.45906 | 20888 ft | 379 kts | 201° |
| 2026-05-05 16:22 | 59.68443 | 10.43251 | 20888 ft | 379 kts | 200° |
| 2026-05-05 16:22 | 59.63245 | 10.41483 | 20893 ft | 379 kts | 200° |
| 2026-05-05 16:23 | 59.58045 | 10.39702 | 20897 ft | 379 kts | 201° |
| 2026-05-05 16:23 | 59.55447 | 10.38810 | 20903 ft | 379 kts | 200° |
| 2026-05-05 16:23 | 59.50200 | 10.37032 | 21746 ft | 385 kts | 200° |
| 2026-05-05 16:24 | 59.47552 | 10.36145 | 22232 ft | 387 kts | 200° |